Time;durP1;ratioP1;P1;durP2;ratioP2;P2;SDS_P1;SDS_P2;PMS_P1;PMS_P2;Temp;Humidity;BMP_temperature;BMP_pressure;BME280_temperature;BME280_humidity;BME280_pressure;Samples;Min_cycle;Max_cycle;Signal;HPM_P1;HPM_P2
2022/10/14 00:01:58;;;;;;;33.83;19.90;;;;;;;17.12;65.05;101443.84;5024251;28;20050;-78
2022/10/14 00:04:25;;;;;;;34.50;19.52;;;;;;;16.97;64.88;101432.00;5024934;28;20226;-78
2022/10/14 00:06:52;;;;;;;32.20;18.67;;;;;;;16.96;64.94;101443.72;5025871;28;20527;-79
2022/10/14 00:09:18;;;;;;;31.95;19.40;;;;;;;16.97;65.29;101450.78;5021301;28;20372;-77
2022/10/14 00:11:45;;;;;;;36.72;18.67;;;;;;;16.90;64.89;101431.78;5005442;28;20552;-78
2022/10/14 00:14:15;;;;;;;44.72;19.73;;;;;;;16.98;65.26;101453.28;5021990;28;20046;-77
2022/10/14 00:16:46;;;;;;;33.53;20.08;;;;;;;16.68;65.10;101395.59;5005315;28;20081;-78
2022/10/14 00:19:13;;;;;;;31.23;19.55;;;;;;;16.97;65.35;101445.44;5006172;28;20056;-78
2022/10/14 00:21:43;;;;;;;31.55;19.50;;;;;;;16.93;65.22;101441.38;5005222;28;20042;-78
2022/10/14 00:24:12;;;;;;;31.38;18.75;;;;;;;16.95;65.28;101450.09;5006417;28;20470;-76
2022/10/14 00:26:39;;;;;;;27.95;19.40;;;;;;;16.51;65.26;101385.75;5005200;28;20054;-78
2022/10/14 00:29:11;;;;;;;30.42;19.08;;;;;;;16.81;65.06;101438.94;5021076;28;20077;-78
2022/10/14 00:31:38;;;;;;;33.45;18.90;;;;;;;16.90;65.21;101455.94;5005822;28;20059;-77
2022/10/14 00:34:04;;;;;;;31.80;20.05;;;;;;;16.45;65.37;101376.47;5020649;28;20088;-78
2022/10/14 00:36:31;;;;;;;32.97;19.92;;;;;;;16.80;65.25;101442.63;5004665;28;20083;-77
2022/10/14 00:38:58;;;;;;;27.50;18.50;;;;;;;16.49;65.58;101388.56;5040542;28;20089;-78
2022/10/14 00:41:31;;;;;;;31.63;19.58;;;;;;;16.79;65.24;101440.94;5041131;28;20140;-79
2022/10/14 00:44:07;;;;;;;28.08;19.55;;;;;;;16.81;65.43;101441.63;5025784;28;20081;-77
2022/10/14 00:46:39;;;;;;;32.35;19.67;;;;;;;16.86;65.80;101433.94;5024330;28;20515;-77
2022/10/14 00:49:17;;;;;;;29.58;18.65;;;;;;;16.70;65.99;101414.19;5020363;28;20619;-77
2022/10/14 00:51:51;;;;;;;34.25;19.25;;;;;;;16.73;65.74;101409.34;5004583;28;20445;-77
2022/10/14 00:54:21;;;;;;;29.08;18.48;;;;;;;16.84;65.55;101429.72;5005202;28;20492;-78
2022/10/14 00:56:49;;;;;;;29.40;19.38;;;;;;;16.78;65.39;101420.47;5007415;28;20089;-78
2022/10/14 00:59:16;;;;;;;29.88;19.67;;;;;;;16.75;65.41;101407.38;5008559;28;20060;-79
2022/10/14 01:01:43;;;;;;;30.42;18.92;;;;;;;16.69;65.76;101394.56;5010024;28;20073;-79
2022/10/14 01:04:10;;;;;;;27.27;18.02;;;;;;;16.80;65.74;101423.03;5027808;28;20133;-76
2022/10/14 01:07:04;;;;;;;32.90;19.73;;;;;;;16.67;65.71;101396.56;5028504;28;20136;-78
2022/10/14 01:10:08;;;;;;;35.92;19.58;;;;;;;16.64;66.04;101396.88;5028176;28;20136;-78
2022/10/14 01:12:51;;;;;;;27.83;18.70;;;;;;;16.81;65.58;101419.31;5027793;28;20046;-77
2022/10/14 01:15:30;;;;;;;28.25;19.08;;;;;;;16.75;65.68;101420.78;5028066;28;20057;-77
2022/10/14 01:18:06;;;;;;;33.60;20.40;;;;;;;16.75;65.44;101420.78;5028041;28;20053;-77
2022/10/14 01:20:57;;;;;;;35.88;20.90;;;;;;;16.75;65.01;101420.78;5027445;28;20132;-78
2022/10/14 01:23:55;;;;;;;31.65;19.17;;;;;;;16.60;65.11;101400.88;5028140;28;20107;-76
2022/10/14 01:26:40;;;;;;;29.48;19.30;;;;;;;16.79;65.63;101415.97;5044144;28;20057;-78
2022/10/14 01:29:43;;;;;;;32.35;20.77;;;;;;;16.76;64.89;101417.09;5027500;28;20044;-77
2022/10/14 01:32:25;;;;;;;28.98;18.75;;;;;;;16.74;65.58;101408.34;5027462;28;20478;-78
2022/10/14 01:35:00;;;;;;;37.15;19.95;;;;;;;16.76;65.14;101418.94;5044018;28;20045;-77
2022/10/14 01:37:29;;;;;;;35.33;21.15;;;;;;;16.68;65.37;101417.03;5026958;28;20049;-77
2022/10/14 01:40:13;;;;;;;27.52;19.05;;;;;;;16.42;65.77;101385.66;5044358;28;20076;-78
2022/10/14 01:42:42;;;;;;;28.05;18.95;;;;;;;16.48;66.00;101404.81;5042855;28;20793;-78
2022/10/14 01:45:21;;;;;;;33.60;19.70;;;;;;;16.25;66.51;101367.78;5042226;28;20046;-79
2022/10/14 01:47:50;;;;;;;34.33;20.60;;;;;;;16.43;66.29;101394.53;5042468;28;20688;-78
2022/10/14 01:50:21;;;;;;;34.28;21.50;;;;;;;16.42;66.47;101403.59;5026684;28;20053;-77
2022/10/14 01:53:17;;;;;;;30.73;20.75;;;;;;;16.00;66.82;101334.59;5025749;28;20563;-79
2022/10/14 01:55:46;;;;;;;31.38;20.20;;;;;;;16.20;66.57;101365.56;5017754;28;20148;-77
2022/10/14 01:58:15;;;;;;;27.20;19.65;;;;;;;16.21;66.53;101358.38;5024156;28;20072;-78
2022/10/14 02:00:42;;;;;;;34.08;20.92;;;;;;;16.40;66.87;101389.50;5023928;28;20458;-78
2022/10/14 02:03:12;;;;;;;31.70;19.65;;;;;;;16.23;67.00;101367.94;5026387;28;20049;-78
2022/10/14 02:06:07;;;;;;;28.65;20.55;;;;;;;16.18;66.79;101358.69;5031812;28;20046;-77
2022/10/14 02:09:00;;;;;;;40.75;20.38;;;;;;;16.30;66.93;101386.91;5029669;28;20046;-78
2022/10/14 02:11:35;;;;;;;31.90;19.92;;;;;;;16.24;67.33;101374.16;5026427;28;20060;-79
2022/10/14 02:14:55;;;;;;;30.75;20.38;;;;;;;16.22;67.01;101374.28;5042122;28;20419;-78
2022/10/14 02:17:34;;;;;;;29.17;19.30;;;;;;;16.08;67.13;101360.59;4984580;28;20563;-77
2022/10/14 02:20:23;;;;;;;31.27;18.92;;;;;;;16.18;66.96;101380.94;5035401;28;20087;-77
2022/10/14 02:22:56;;;;;;;31.73;19.27;;;;;;;16.02;67.03;101354.03;5026574;28;20053;-77
2022/10/14 02:25:32;;;;;;;30.65;19.15;;;;;;;15.79;67.02;101308.13;5026373;28;20559;-79
2022/10/14 02:28:01;;;;;;;33.60;19.90;;;;;;;16.00;66.99;101348.81;5026309;28;20132;-78
2022/10/14 02:30:34;;;;;;;30.80;18.27;;;;;;;15.88;67.46;101330.47;5028031;28;20057;-78
2022/10/14 02:33:01;;;;;;;29.15;19.58;;;;;;;15.89;67.07;101332.16;5026137;28;20487;-77
2022/10/14 02:35:30;;;;;;;29.58;19.17;;;;;;;16.01;67.30;101350.50;5026176;28;20188;-78
2022/10/14 02:37:58;;;;;;;31.08;19.17;;;;;;;15.98;66.89;101342.78;5043040;28;20288;-76
2022/10/14 02:40:32;;;;;;;26.38;19.13;;;;;;;16.11;66.75;101362.97;5043073;28;20065;-77
2022/10/14 02:42:58;;;;;;;28.92;19.38;;;;;;;15.94;66.73;101352.09;5026007;28;20042;-77
2022/10/14 02:45:26;;;;;;;29.55;19.48;;;;;;;15.96;66.89;101355.47;5042407;28;20055;-79
2022/10/14 02:47:53;;;;;;;32.15;18.60;;;;;;;16.03;66.94;101371.78;5025472;28;20064;-78
2022/10/14 02:50:20;;;;;;;28.60;19.38;;;;;;;15.83;66.75;101338.97;5022626;28;20060;-78
2022/10/14 02:52:47;;;;;;;27.85;19.08;;;;;;;15.97;67.34;101365.22;5005855;28;20530;-78
2022/10/14 02:55:14;;;;;;;29.17;19.10;;;;;;;15.49;67.34;101299.44;5006506;28;20042;-77
2022/10/14 02:57:40;;;;;;;29.80;19.15;;;;;;;15.93;67.26;101376.38;5005905;28;20075;-78
2022/10/14 03:00:08;;;;;;;27.80;18.40;;;;;;;15.72;67.28;101357.91;5005862;28;20140;-77
2022/10/14 03:02:35;;;;;;;30.80;19.48;;;;;;;15.78;67.56;101366.19;5006882;28;20562;-77
2022/10/14 03:05:02;;;;;;;35.72;19.98;;;;;;;15.65;67.25;101330.03;5005807;28;20050;-77
2022/10/14 03:07:29;;;;;;;30.65;18.90;;;;;;;15.64;67.13;101323.03;5009668;28;20050;-78
2022/10/14 03:09:57;;;;;;;26.45;18.25;;;;;;;15.96;67.05;101376.06;5027001;28;20537;-77
2022/10/14 03:12:24;;;;;;;28.58;18.52;;;;;;;15.93;66.80;101369.19;5041940;28;20081;-76
2022/10/14 03:14:51;;;;;;;32.53;18.23;;;;;;;16.01;67.13;101373.75;5041774;28;20053;-78
2022/10/14 03:17:18;;;;;;;32.05;18.42;;;;;;;15.94;66.52;101356.63;5042167;28;20131;-78
2022/10/14 03:19:44;;;;;;;27.60;17.67;;;;;;;16.05;66.42;101358.25;5041484;28;20115;-78
2022/10/14 03:22:11;;;;;;;28.67;18.02;;;;;;;16.09;66.18;101365.78;5041898;28;20088;-78
2022/10/14 03:24:41;;;;;;;30.20;18.40;;;;;;;16.04;66.25;101362.75;5041607;28;20136;-78
2022/10/14 03:27:08;;;;;;;35.25;18.88;;;;;;;15.87;66.04;101318.91;5041477;28;20136;-78
2022/10/14 03:29:34;;;;;;;29.98;19.20;;;;;;;16.00;66.16;101351.50;5041869;28;20045;-77
2022/10/14 03:32:01;;;;;;;26.23;17.60;;;;;;;16.13;65.64;101355.63;5026428;28;20384;-77
2022/10/14 03:34:27;;;;;;;30.02;17.83;;;;;;;16.09;65.95;101344.38;5026458;28;20050;-77
2022/10/14 03:36:54;;;;;;;29.75;18.60;;;;;;;15.90;65.97;101323.97;5041391;28;20064;-78
2022/10/14 03:39:21;;;;;;;30.80;18.88;;;;;;;16.10;66.26;101355.94;5041536;28;20076;-76
2022/10/14 03:41:47;;;;;;;27.67;18.33;;;;;;;15.93;65.81;101328.19;5040996;28;20045;-77
2022/10/14 03:44:14;;;;;;;26.70;19.23;;;;;;;15.88;66.02;101320.59;5037079;28;20048;-77
2022/10/14 03:46:41;;;;;;;29.23;18.90;;;;;;;16.03;66.21;101361.91;5016661;28;20069;-76
2022/10/14 03:49:07;;;;;;;28.00;18.83;;;;;;;16.00;66.37;101359.53;5024803;28;20136;-76
2022/10/14 03:51:34;;;;;;;27.98;18.80;;;;;;;15.97;65.84;101357.19;5024938;28;20482;-76
2022/10/14 03:54:01;;;;;;;30.23;18.33;;;;;;;15.81;66.23;101324.88;5024513;28;20215;-76
2022/10/14 03:56:28;;;;;;;30.52;17.55;;;;;;;15.72;66.61;101326.63;5024738;28;20448;-76
2022/10/14 03:58:54;;;;;;;32.30;19.17;;;;;;;15.77;66.57;101334.22;5024638;28;20391;-75
2022/10/14 04:01:21;;;;;;;29.98;17.50;;;;;;;15.73;66.76;101327.50;5024653;28;20594;-76
2022/10/14 04:03:49;;;;;;;33.30;19.00;;;;;;;15.87;66.52;101356.38;5024677;28;20168;-76
2022/10/14 04:06:16;;;;;;;31.50;18.25;;;;;;;15.87;66.43;101364.41;5024560;28;20107;-77
2022/10/14 04:08:43;;;;;;;29.40;17.90;;;;;;;15.88;66.41;101360.75;5025658;28;20090;-76
2022/10/14 04:11:10;;;;;;;25.70;18.48;;;;;;;15.90;66.05;101366.81;5024718;28;20045;-77
2022/10/14 04:13:36;;;;;;;28.55;18.60;;;;;;;15.91;66.33;101364.97;5021010;28;20475;-79
2022/10/14 04:16:09;;;;;;;27.70;20.25;;;;;;;15.75;66.60;101330.84;5021714;28;20470;-78
2022/10/14 04:18:36;;;;;;;28.90;17.77;;;;;;;15.91;66.58;101349.75;5004856;28;20140;-78
2022/10/14 04:21:09;;;;;;;26.45;18.15;;;;;;;15.36;66.60;101256.16;5004804;28;20120;-79
2022/10/14 04:23:37;;;;;;;29.23;18.33;;;;;;;15.94;66.38;101341.41;5004649;28;20054;-78
2022/10/14 04:26:05;;;;;;;30.52;19.52;;;;;;;15.94;66.36;101360.13;5005032;28;20393;-78
2022/10/14 04:28:33;;;;;;;31.23;18.63;;;;;;;15.70;66.41;101317.06;5004768;28;20054;-78
2022/10/14 04:30:59;;;;;;;30.58;17.88;;;;;;;15.86;66.22;101354.72;5003935;28;20058;-77
2022/10/14 04:33:27;;;;;;;30.67;18.27;;;;;;;15.77;66.51;101348.44;5020673;28;20054;-77
2022/10/14 04:36:02;;;;;;;28.25;18.33;;;;;;;15.71;66.52;101350.91;5020670;28;20431;-77
2022/10/14 04:38:28;;;;;;;28.23;18.63;;;;;;;15.62;66.96;101347.25;5021596;28;20178;-77
2022/10/14 04:40:55;;;;;;;31.30;19.30;;;;;;;14.30;66.93;101136.34;5040824;28;20506;-78
2022/10/14 04:43:22;;;;;;;25.42;19.00;;;;;;;15.51;67.21;101334.94;5023991;28;20141;-77
2022/10/14 04:45:49;;;;;;;26.40;18.52;;;;;;;15.56;67.26;101337.16;5040619;28;20057;-78
2022/10/14 04:48:17;;;;;;;33.78;18.88;;;;;;;15.49;67.04;101328.88;5040090;28;20084;-77
2022/10/14 04:50:43;;;;;;;28.83;18.33;;;;;;;15.59;67.08;101332.34;5024118;28;20060;-78
2022/10/14 04:53:11;;;;;;;29.00;18.83;;;;;;;15.59;67.24;101326.97;5024091;28;20061;-78
2022/10/14 04:55:40;;;;;;;30.02;17.73;;;;;;;15.60;67.26;101328.66;5023932;28;20553;-79
2022/10/14 04:58:07;;;;;;;30.88;18.67;;;;;;;15.64;67.47;101339.91;5024002;28;20137;-78
2022/10/14 05:00:33;;;;;;;36.20;18.75;;;;;;;15.57;67.02;101339.66;5022069;28;20057;-78
2022/10/14 05:03:00;;;;;;;35.47;19.45;;;;;;;15.35;67.03;101318.69;5023742;28;20466;-77
2022/10/14 05:05:27;;;;;;;38.83;25.10;;;;;;;15.33;66.98;101326.03;5025163;28;20081;-76
2022/10/14 05:07:54;;;;;;;34.47;19.95;;;;;;;15.28;67.21;101330.97;5023875;28;20050;-77
2022/10/14 05:10:21;;;;;;;29.05;19.17;;;;;;;15.26;67.34;101335.63;5023590;28;20088;-77
2022/10/14 05:12:48;;;;;;;29.20;18.52;;;;;;;15.35;67.76;101348.13;5040189;28;20131;-77
2022/10/14 05:15:15;;;;;;;30.30;18.05;;;;;;;15.17;67.90;101327.53;5017779;28;20042;-78
2022/10/14 05:17:43;;;;;;;34.40;20.63;;;;;;;15.36;67.69;101347.13;5004310;28;20041;-78
2022/10/14 05:20:11;;;;;;;28.95;19.50;;;;;;;15.43;68.02;101353.56;5023096;28;20042;-77
2022/10/14 05:22:38;;;;;;;28.77;18.27;;;;;;;15.42;68.00;101359.91;5023825;28;20041;-76
2022/10/14 05:25:05;;;;;;;35.50;20.40;;;;;;;15.44;68.10;101363.28;5004658;28;20611;-76
2022/10/14 05:27:31;;;;;;;26.90;19.83;;;;;;;15.40;67.95;101337.81;5004047;28;20054;-77
2022/10/14 05:29:58;;;;;;;34.72;19.00;;;;;;;15.51;68.03;101356.34;5018668;28;20533;-76
2022/10/14 05:32:25;;;;;;;31.45;20.27;;;;;;;15.48;67.55;101337.06;5005671;28;20085;-77
2022/10/14 05:34:51;;;;;;;36.35;21.00;;;;;;;15.49;67.87;101342.25;5021616;28;20092;-77
2022/10/14 05:37:18;;;;;;;28.25;19.80;;;;;;;15.33;67.68;101312.66;5024978;28;20560;-76
2022/10/14 05:39:45;;;;;;;33.85;20.02;;;;;;;15.46;67.75;101347.94;5024983;28;20045;-77
2022/10/14 05:42:12;;;;;;;31.75;19.00;;;;;;;15.44;67.52;101343.69;5026574;28;20132;-77
2022/10/14 05:44:39;;;;;;;39.35;19.48;;;;;;;15.43;67.49;101342.03;5028482;28;20096;-78
2022/10/14 05:47:05;;;;;;;30.15;20.70;;;;;;;15.26;67.06;101311.56;5034291;28;20088;-77
2022/10/14 05:49:32;;;;;;;37.63;19.75;;;;;;;15.55;67.23;101347.00;5036971;28;20057;-78
2022/10/14 05:51:59;;;;;;;28.90;19.00;;;;;;;15.43;67.28;101315.25;5028481;28;20251;-77
2022/10/14 05:54:25;;;;;;;26.75;18.70;;;;;;;15.56;67.12;101343.34;5028551;28;20049;-77
2022/10/14 05:56:52;;;;;;;30.58;19.02;;;;;;;15.60;67.36;101349.22;5028667;28;20060;-77
2022/10/14 05:59:18;;;;;;;28.00;18.67;;;;;;;15.51;66.69;101340.28;5028174;28;20041;-79
2022/10/14 06:01:45;;;;;;;34.47;19.00;;;;;;;15.56;66.91;101342.50;5028583;28;20073;-78
2022/10/14 06:04:19;;;;;;;31.02;18.23;;;;;;;15.74;65.96;101355.94;5028696;28;20140;-77
2022/10/14 06:06:46;;;;;;;39.40;19.30;;;;;;;15.75;66.46;101360.28;5027364;28;20483;-77
2022/10/14 06:09:13;;;;;;;26.55;18.08;;;;;;;15.77;66.27;101336.88;5028038;28;20053;-77
2022/10/14 06:11:40;;;;;;;33.53;21.90;;;;;;;15.95;66.24;101359.16;5028436;28;20046;-77
2022/10/14 06:14:09;;;;;;;34.15;22.23;;;;;;;15.93;66.64;101354.97;5024198;28;20312;-78
2022/10/14 06:16:36;;;;;;;26.63;18.95;;;;;;;15.97;66.61;101362.53;5024931;28;20108;-78
2022/10/14 06:19:02;;;;;;;32.65;20.15;;;;;;;15.96;66.30;101371.53;5008235;28;20505;-77
2022/10/14 06:21:29;;;;;;;33.97;21.10;;;;;;;15.84;66.35;101346.00;5010724;28;20045;-77
2022/10/14 06:23:56;;;;;;;30.73;20.33;;;;;;;16.00;65.98;101372.94;5027856;28;20054;-76
2022/10/14 06:26:22;;;;;;;32.38;18.88;;;;;;;15.94;66.01;101352.09;5027273;28;20467;-78
2022/10/14 06:28:49;;;;;;;30.85;19.17;;;;;;;16.10;66.39;101367.50;5026407;28;20140;-78
2022/10/14 06:31:17;;;;;;;32.55;20.08;;;;;;;16.13;66.30;101371.69;5027703;28;20411;-77
2022/10/14 06:33:43;;;;;;;34.05;19.58;;;;;;;16.13;66.52;101372.53;5025806;28;20049;-77
2022/10/14 06:36:10;;;;;;;39.40;21.40;;;;;;;16.00;66.87;101351.50;5026334;28;20432;-77
2022/10/14 06:38:37;;;;;;;43.30;20.88;;;;;;;16.08;66.73;101365.97;5025990;28;20073;-78
2022/10/14 06:41:04;;;;;;;36.53;22.33;;;;;;;16.20;66.31;101383.47;5026170;28;20135;-78
2022/10/14 06:43:31;;;;;;;32.28;21.00;;;;;;;15.72;66.10;101293.69;5043055;28;20441;-76
2022/10/14 06:45:58;;;;;;;49.58;22.52;;;;;;;16.12;65.57;101354.78;5025642;28;20458;-77
2022/10/14 06:48:25;;;;;;;38.90;22.92;;;;;;;16.35;65.54;101389.97;5042545;28;20061;-77
2022/10/14 06:50:52;;;;;;;43.55;21.17;;;;;;;16.37;65.39;101390.66;5025739;28;20724;-76
2022/10/14 06:53:18;;;;;;;45.45;24.15;;;;;;;16.43;65.49;101400.78;5023018;28;20383;-75
2022/10/14 06:55:45;;;;;;;42.30;22.35;;;;;;;16.20;65.52;101356.69;5025605;28;20403;-78
2022/10/14 06:58:13;;;;;;;39.35;22.85;;;;;;;16.18;65.38;101346.13;5025569;28;20077;-76
2022/10/14 07:00:39;;;;;;;33.95;21.23;;;;;;;16.41;65.51;101365.25;5025904;28;20132;-77
2022/10/14 07:03:12;;;;;;;33.65;21.33;;;;;;;16.63;65.34;101400.59;5025661;28;20057;-76
2022/10/14 07:05:39;;;;;;;42.55;22.73;;;;;;;16.64;65.61;101396.88;5025347;28;20050;-75
2022/10/14 07:08:05;;;;;;;35.50;21.17;;;;;;;16.60;65.73;101395.50;5025736;28;20049;-76
2022/10/14 07:10:35;;;;;;;39.15;23.55;;;;;;;16.69;66.08;101405.31;5025734;28;20056;-77
2022/10/14 07:13:02;;;;;;;46.05;24.05;;;;;;;16.68;65.02;101400.94;5025585;28;20077;-76
2022/10/14 07:15:28;;;;;;;38.08;21.08;;;;;;;16.71;65.25;101389.06;5041802;28;20065;-75
2022/10/14 07:18:03;;;;;;;35.25;22.73;;;;;;;16.82;65.21;101395.03;5021258;28;20062;-76
2022/10/14 07:20:29;;;;;;;37.65;22.85;;;;;;;16.74;65.61;101378.03;5005300;28;20534;-76
2022/10/14 07:22:56;;;;;;;37.35;23.08;;;;;;;16.94;65.35;101409.00;5005871;28;20052;-75
2022/10/14 07:25:23;;;;;;;44.85;23.77;;;;;;;16.99;65.56;101405.84;5005608;28;20536;-77
2022/10/14 07:27:52;;;;;;;40.95;23.33;;;;;;;17.05;65.35;101413.28;5007460;28;20062;-76
2022/10/14 07:30:18;;;;;;;44.10;22.67;;;;;;;16.99;65.10;101381.72;5025113;28;20088;-76
2022/10/14 07:32:46;;;;;;;37.17;23.95;;;;;;;16.96;64.28;101379.34;5024695;28;20411;-76
2022/10/14 07:35:13;;;;;;;41.72;24.38;;;;;;;16.95;64.45;101364.28;5024464;28;20765;-76
2022/10/14 07:37:39;;;;;;;48.70;24.88;;;;;;;16.92;64.13;101346.66;5026376;28;20132;-78
2022/10/14 07:40:07;;;;;;;38.83;22.80;;;;;;;17.24;63.95;101388.91;5024618;28;20056;-78
2022/10/14 07:42:34;;;;;;;38.28;25.27;;;;;;;17.40;64.04;101406.06;5041698;28;20464;-76
2022/10/14 07:45:00;;;;;;;38.50;25.95;;;;;;;17.47;63.35;101404.41;5021645;28;20454;-77
2022/10/14 07:47:28;;;;;;;42.85;25.33;;;;;;;17.49;62.90;101397.03;5005230;28;20077;-76
2022/10/14 07:49:54;;;;;;;37.78;24.08;;;;;;;17.45;62.70;101390.31;5019422;28;20136;-75
2022/10/14 07:52:21;;;;;;;44.83;26.23;;;;;;;17.62;61.40;101396.56;5024148;28;20055;-77
2022/10/14 07:54:49;;;;;;;37.38;25.25;;;;;;;17.65;61.65;101399.78;5024070;28;20415;-76
2022/10/14 07:57:18;;;;;;;37.38;24.48;;;;;;;17.73;61.25;101394.44;5024664;28;20050;-77
2022/10/14 07:59:45;;;;;;;45.72;30.52;;;;;;;17.88;60.01;101396.50;5024073;28;20491;-76
2022/10/14 08:02:12;;;;;;;43.33;27.65;;;;;;;17.83;60.45;101386.25;5024003;28;20515;-76
2022/10/14 08:04:39;;;;;;;42.17;26.30;;;;;;;17.92;60.58;101401.38;5028702;28;20492;-77
2022/10/14 08:07:05;;;;;;;49.55;29.23;;;;;;;17.90;60.25;101406.06;5023400;28;20046;-78
2022/10/14 08:09:35;;;;;;;59.72;30.85;;;;;;;18.04;59.86;101409.97;5024179;28;20051;-77
2022/10/14 08:12:02;;;;;;;53.90;30.98;;;;;;;18.07;59.92;101415.00;5024124;28;20053;-76
2022/10/14 08:14:28;;;;;;;51.92;30.35;;;;;;;18.07;59.80;101401.56;5021169;28;20077;-76
2022/10/14 08:16:55;;;;;;;44.55;29.50;;;;;;;18.07;60.24;101406.94;5016700;28;20483;-77
2022/10/14 08:19:23;;;;;;;48.50;29.45;;;;;;;18.09;60.32;101402.25;5011982;28;20048;-78
2022/10/14 08:21:49;;;;;;;46.88;26.73;;;;;;;18.22;60.61;101408.97;5026928;28;20132;-78
2022/10/14 08:24:16;;;;;;;47.72;29.85;;;;;;;18.32;59.87;101410.47;5025564;28;20104;-77
2022/10/14 08:26:56;;;;;;;51.53;29.80;;;;;;;18.40;59.56;101404.28;5025513;28;20053;-78
2022/10/14 08:29:24;;;;;;;49.88;30.88;;;;;;;18.48;59.50;101398.06;5025118;28;20289;-76
2022/10/14 08:31:51;;;;;;;46.60;29.00;;;;;;;18.56;59.02;101406.13;5025631;28;20153;-76
2022/10/14 08:34:22;;;;;;;45.78;27.70;;;;;;;18.69;58.73;101401.06;5025532;28;20603;-76
2022/10/14 08:36:50;;;;;;;49.08;27.30;;;;;;;18.77;58.31;101408.31;5024332;28;20128;-77
2022/10/14 08:39:20;;;;;;;48.20;28.63;;;;;;;18.76;58.24;101415.56;5024447;28;20488;-77
2022/10/14 08:42:10;;;;;;;50.65;28.05;;;;;;;18.84;58.38;101413.88;5025541;28;20064;-76
2022/10/14 08:44:50;;;;;;;49.63;27.90;;;;;;;18.92;58.10;101411.16;5020926;28;20061;-75
2022/10/14 08:47:22;;;;;;;54.20;29.52;;;;;;;19.08;57.16;101418.31;5005768;28;20482;-77
2022/10/14 08:49:58;;;;;;;34.60;20.55;;;;;;;19.09;58.34;101417.31;5018877;28;20220;-76
2022/10/14 08:52:29;;;;;;;46.00;27.25;;;;;;;19.11;58.37;101410.75;5025767;28;20059;-74
2022/10/14 08:55:26;;;;;;;48.38;26.77;;;;;;;19.12;58.66;101396.28;5026236;28;20495;-76
2022/10/14 08:58:00;;;;;;;45.88;27.85;;;;;;;19.42;57.39;101421.59;5024748;28;20064;-76
2022/10/14 09:00:30;;;;;;;47.53;26.92;;;;;;;19.49;57.25;101415.50;5026695;28;20053;-75
2022/10/14 09:02:58;;;;;;;47.97;28.98;;;;;;;19.61;56.65;101422.16;5027088;28;20140;-75
2022/10/14 09:05:26;;;;;;;54.33;28.40;;;;;;;19.68;56.64;101417.78;5027472;28;20068;-77
2022/10/14 09:07:55;;;;;;;48.72;30.35;;;;;;;19.77;55.87;101422.13;5024467;28;20077;-78
2022/10/14 09:10:27;;;;;;;50.97;31.30;;;;;;;19.82;55.92;101425.13;5021099;28;20113;-78
2022/10/14 09:12:57;;;;;;;51.78;30.55;;;;;;;19.87;55.67;101426.44;5019594;28;20049;-78
2022/10/14 09:15:35;;;;;;;47.13;28.30;;;;;;;19.79;55.80;101413.88;4958441;28;20117;-78
2022/10/14 09:18:25;;;;;;;42.00;29.08;;;;;;;19.94;55.67;101432.81;4990640;28;20135;-76
2022/10/14 09:20:54;;;;;;;50.28;27.38;;;;;;;19.72;55.81;101375.19;5027905;28;20081;-76
2022/10/14 09:23:26;;;;;;;44.40;23.17;;;;;;;20.01;55.77;101407.66;5027672;28;20057;-78
2022/10/14 09:26:12;;;;;;;52.08;27.40;;;;;;;20.27;54.77;101423.47;5027258;28;20057;-76
2022/10/14 09:28:43;;;;;;;49.65;28.88;;;;;;;20.40;54.72;101422.88;5029307;28;20050;-76
2022/10/14 09:31:13;;;;;;;41.53;26.20;;;;;;;20.38;54.01;101410.59;5027343;28;20561;-77
2022/10/14 09:33:41;;;;;;;53.15;27.30;;;;;;;20.30;54.50;101395.31;5027735;28;20467;-79
2022/10/14 09:36:19;;;;;;;40.38;25.95;;;;;;;19.92;54.17;101310.88;5027299;28;20099;-76
2022/10/14 09:38:51;;;;;;;44.67;25.52;;;;;;;20.53;54.25;101400.66;5026766;28;20416;-77
2022/10/14 09:41:25;;;;;;;41.33;25.02;;;;;;;20.83;54.10;101416.97;5027272;28;20080;-78
2022/10/14 09:44:20;;;;;;;26.08;19.70;;;;;;;20.90;53.92;101413.34;5025326;28;20496;-78
2022/10/14 09:46:55;;;;;;;45.08;28.30;;;;;;;20.67;53.42;101353.19;5008212;28;20050;-75
2022/10/14 09:49:33;;;;;;;44.80;25.45;;;;;;;21.13;52.99;101418.63;5017802;28;20137;-76
2022/10/14 09:52:01;;;;;;;32.65;22.50;;;;;;;21.19;53.68;101411.69;5027449;28;20041;-76
2022/10/14 09:54:30;;;;;;;36.90;24.63;;;;;;;21.33;52.69;101415.38;5026872;28;20115;-78
2022/10/14 09:57:01;;;;;;;43.63;27.27;;;;;;;21.12;52.06;101362.16;5027128;28;20052;-77
2022/10/14 09:59:30;;;;;;;39.10;22.75;;;;;;;21.51;51.31;101394.25;5028377;28;20068;-77
2022/10/14 10:02:00;;;;;;;43.30;25.90;;;;;;;21.51;51.04;101393.41;5024794;28;20065;-78
2022/10/14 10:04:45;;;;;;;44.55;27.38;;;;;;;21.38;51.03;101372.44;5023924;28;20511;-75
2022/10/14 10:07:33;;;;;;;37.33;24.83;;;;;;;21.59;51.76;101396.00;5027545;28;20538;-78
2022/10/14 10:10:04;;;;;;;36.95;25.45;;;;;;;21.70;51.83;101405.47;5027117;28;20148;-77
2022/10/14 10:12:34;;;;;;;46.03;25.47;;;;;;;21.07;51.29;101297.91;5026780;28;20089;-76
2022/10/14 10:15:04;;;;;;;39.67;23.23;;;;;;;21.85;51.57;101405.44;5023310;28;20058;-76
2022/10/14 10:17:36;;;;;;;38.63;25.20;;;;;;;21.86;51.78;101389.03;5024042;28;20377;-77
2022/10/14 10:20:26;;;;;;;40.40;25.00;;;;;;;22.09;50.83;101393.41;5026603;28;20084;-78
2022/10/14 10:22:57;;;;;;;42.35;24.05;;;;;;;22.08;51.35;101383.63;5026903;28;20065;-77
2022/10/14 10:25:27;;;;;;;43.30;23.50;;;;;;;22.18;50.37;101384.13;5028318;28;20057;-77
2022/10/14 10:27:57;;;;;;;39.55;25.75;;;;;;;22.37;50.38;101402.44;5025605;28;20056;-79
2022/10/14 10:30:56;;;;;;;39.67;24.75;;;;;;;22.35;49.72;101390.97;5027974;28;20092;-78
2022/10/14 10:33:35;;;;;;;41.08;24.23;;;;;;;22.47;49.77;101396.69;5027652;28;20519;-76
2022/10/14 10:36:17;;;;;;;31.00;20.85;;;;;;;22.53;49.11;101381.56;5026506;28;20052;-79
2022/10/14 10:38:58;;;;;;;28.95;20.38;;;;;;;22.65;49.31;101380.00;5025970;28;20080;-76
2022/10/14 10:41:47;;;;;;;47.95;29.70;;;;;;;22.78;48.20;101380.06;5027158;28;20132;-77
2022/10/14 10:44:41;;;;;;;43.78;27.30;;;;;;;22.73;48.66;101360.88;5040544;28;20462;-77
2022/10/14 10:47:26;;;;;;;51.28;28.65;;;;;;;22.86;47.86;101370.94;5025443;28;20081;-76
2022/10/14 10:50:11;;;;;;;36.25;24.33;;;;;;;22.98;47.52;101384.78;5025333;28;20509;-77
2022/10/14 10:52:58;;;;;;;34.13;24.40;;;;;;;22.97;47.59;101377.69;5026856;28;20490;-77
2022/10/14 10:55:34;;;;;;;49.55;29.67;;;;;;;22.96;48.12;101376.00;5025967;28;20491;-77
2022/10/14 10:58:39;;;;;;;32.72;23.10;;;;;;;23.02;48.14;101375.25;5008742;28;20080;-78
2022/10/14 11:01:30;;;;;;;40.90;24.58;;;;;;;22.71;48.48;101314.22;5011182;28;20049;-75
2022/10/14 11:04:07;;;;;;;51.05;31.33;;;;;;;23.10;48.30;101376.94;5020059;28;20080;-78
2022/10/14 11:12:59;;;;;;;28.70;19.55;;;;;;;22.78;49.51;101357.56;5025935;28;20476;-78
2022/10/14 11:15:58;;;;;;;44.15;30.17;;;;;;;22.27;48.77;101307.28;5021689;28;20050;-78
2022/10/14 11:18:35;;;;;;;24.65;16.30;;;;;;;22.79;50.39;101354.69;5008753;28;20254;-79
2022/10/14 11:21:06;;;;;;;44.40;30.63;;;;;;;22.46;49.57;101354.44;5022900;28;20146;-80
2022/10/14 11:23:42;;;;;;;;;;;;;;;22.44;49.31;101352.97;5028382;28;20072;-77
2022/10/14 11:26:40;;;;;;;50.65;29.25;;;;;;;22.36;49.03;101352.09;5027422;28;19925;-77
2022/10/14 11:29:21;;;;;;;55.47;30.92;;;;;;;22.12;48.85;101315.44;5025087;28;20045;-78
2022/10/14 11:32:05;;;;;;;41.30;23.98;;;;;;;21.89;49.56;101261.59;5023906;28;20065;-77
2022/10/14 11:34:46;;;;;;;44.63;28.95;;;;;;;22.49;48.87;101336.97;5024000;28;20137;-77
2022/10/14 11:37:43;;;;;;;54.33;32.78;;;;;;;22.12;48.53;101311.91;5010728;28;20132;-76